createdAt,value
2019-04-16T00:00:24.635Z,7.40
2019-04-16T00:02:53.827Z,7.43
2019-04-16T00:05:33.647Z,7.50
2019-04-16T00:08:19.542Z,7.80
2019-04-16T00:10:42.043Z,7.77
2019-04-16T00:13:10.001Z,7.70
2019-04-16T00:15:40.946Z,7.83
2019-04-16T00:18:04.734Z,7.80
2019-04-16T00:20:36.754Z,7.90
2019-04-16T00:23:14.893Z,7.63
2019-04-16T00:25:41.003Z,8.13
2019-04-16T00:28:07.048Z,7.00
2019-04-16T00:30:35.606Z,7.33
2019-04-16T00:33:01.085Z,7.27
2019-04-16T00:35:27.536Z,7.90
2019-04-16T00:37:53.895Z,7.80
2019-04-16T00:40:20.432Z,7.67
2019-04-16T00:42:46.480Z,7.30
2019-04-16T00:45:14.932Z,7.70
2019-04-16T00:47:41.119Z,8.00
2019-04-16T00:50:08.828Z,8.13
2019-04-16T00:52:37.020Z,8.10
2019-04-16T00:55:05.534Z,8.10
2019-04-16T00:57:32.315Z,7.73
2019-04-16T00:59:59.083Z,7.63
2019-04-16T01:02:25.165Z,7.53
2019-04-16T01:04:51.513Z,7.93
2019-04-16T01:07:17.940Z,7.93
2019-04-16T01:09:44.684Z,8.07
2019-04-16T01:12:11.021Z,8.13
2019-04-16T01:14:37.390Z,6.70
2019-04-16T01:17:05.065Z,7.67
2019-04-16T01:19:31.428Z,8.10
2019-04-16T01:21:57.476Z,8.00
2019-04-16T01:24:23.577Z,7.10
2019-04-16T01:26:49.911Z,7.07
2019-04-16T01:29:17.091Z,7.90
2019-04-16T01:32:02.340Z,7.70
2019-04-16T01:34:36.415Z,7.67
2019-04-16T01:37:16.292Z,7.57
2019-04-16T01:39:47.425Z,7.40
2019-04-16T01:42:12.569Z,7.60
2019-04-16T01:44:38.868Z,7.80
2019-04-16T01:47:05.326Z,7.90
2019-04-16T01:49:32.454Z,7.37
2019-04-16T01:51:58.540Z,8.10
2019-04-16T01:54:24.965Z,8.70
2019-04-16T01:56:51.015Z,8.10
2019-04-16T01:59:17.354Z,7.93
2019-04-16T02:01:44.210Z,8.30
2019-04-16T02:04:11.000Z,8.40
2019-04-16T02:06:37.043Z,8.20
2019-04-16T02:09:05.704Z,8.30
2019-04-16T02:11:31.779Z,8.43
2019-04-16T02:13:58.108Z,7.90
2019-04-16T02:16:25.158Z,8.17
2019-04-16T02:18:52.641Z,8.33
2019-04-16T02:21:18.692Z,8.80
2019-04-16T02:23:45.395Z,8.57
2019-04-16T02:26:12.740Z,7.60
2019-04-16T02:28:38.787Z,7.93
2019-04-16T02:31:12.547Z,7.60
2019-04-16T02:33:32.825Z,8.17
2019-04-16T02:35:58.911Z,8.30
2019-04-16T02:38:25.359Z,7.80
2019-04-16T02:40:53.278Z,8.10
2019-04-16T02:43:19.760Z,8.40
2019-04-16T02:45:46.130Z,7.77
2019-04-16T02:48:16.695Z,7.70
2019-04-16T02:50:42.415Z,8.73
2019-04-16T02:53:10.748Z,8.77
2019-04-16T02:55:44.410Z,8.20
2019-04-16T02:58:12.891Z,8.13
2019-04-16T03:00:41.511Z,8.03
2019-04-16T03:03:26.217Z,8.33
2019-04-16T03:05:54.533Z,8.67
2019-04-16T03:08:20.585Z,8.83
2019-04-16T03:10:47.666Z,7.87
2019-04-16T03:13:14.356Z,8.00
2019-04-16T03:15:45.604Z,8.83
2019-04-16T03:18:14.894Z,8.40
2019-04-16T03:20:41.551Z,9.43
2019-04-16T03:23:07.600Z,8.40
2019-04-16T03:25:34.052Z,9.17
2019-04-16T03:28:00.097Z,9.23
2019-04-16T03:30:26.193Z,9.13
2019-04-16T03:32:52.248Z,8.77
2019-04-16T03:35:22.482Z,8.70
2019-04-16T03:37:47.635Z,8.87
2019-04-16T03:40:17.754Z,8.93
2019-04-16T03:42:42.438Z,9.10
2019-04-16T03:45:09.828Z,7.63
2019-04-16T03:47:36.561Z,9.03
2019-04-16T03:50:06.995Z,9.17
2019-04-16T03:52:33.420Z,8.40
2019-04-16T03:54:59.477Z,8.40
2019-04-16T03:57:25.569Z,8.17
2019-04-16T03:59:51.647Z,8.27
2019-04-16T04:02:21.985Z,8.50
2019-04-16T04:04:45.760Z,9.03
2019-04-16T04:07:13.421Z,8.80
2019-04-16T04:09:40.137Z,8.90
2019-04-16T04:12:12.250Z,8.47
2019-04-16T04:14:35.140Z,8.00
2019-04-16T04:17:05.430Z,8.77
2019-04-16T04:19:29.540Z,8.93
2019-04-16T04:21:55.619Z,8.40
2019-04-16T04:24:22.307Z,8.13
2019-04-16T04:26:48.459Z,7.93
2019-04-16T04:29:14.605Z,8.87
2019-04-16T04:31:40.692Z,7.87
2019-04-16T04:34:09.846Z,8.57
2019-04-16T04:36:35.144Z,8.33
2019-04-16T04:39:01.680Z,8.90
2019-04-16T04:41:27.730Z,10.13
2019-04-16T04:43:54.264Z,9.37
2019-04-16T04:46:20.594Z,9.30
2019-04-16T04:48:46.673Z,9.07
2019-04-16T04:51:13.105Z,10.10
2019-04-16T04:53:39.145Z,9.00
2019-04-16T04:56:06.127Z,8.03
2019-04-16T04:58:34.196Z,9.57
2019-04-16T05:01:00.536Z,10.33
2019-04-16T05:03:31.565Z,11.10
2019-04-16T05:05:59.931Z,11.23
2019-04-16T05:08:28.678Z,11.83
2019-04-16T05:10:59.892Z,10.33
2019-04-16T05:13:24.920Z,10.53
2019-04-16T05:15:51.193Z,11.63
2019-04-16T05:18:17.275Z,11.10
2019-04-16T05:20:46.695Z,10.93
2019-04-16T05:23:11.310Z,11.30
2019-04-16T05:25:37.640Z,10.93
2019-04-16T05:28:03.967Z,11.10
2019-04-16T05:30:30.300Z,11.10
2019-04-16T05:32:57.038Z,10.73
2019-04-16T05:35:23.224Z,11.53
2019-04-16T05:37:51.470Z,10.70
2019-04-16T05:40:17.972Z,11.00
2019-04-16T05:42:44.426Z,9.70
2019-04-16T05:45:12.008Z,10.80
2019-04-16T05:47:38.912Z,10.03
2019-04-16T05:50:05.964Z,10.17
2019-04-16T05:52:35.741Z,10.33
2019-04-16T05:55:04.794Z,10.13
2019-04-16T05:57:35.980Z,10.80
2019-04-16T06:00:10.096Z,10.70
2019-04-16T06:02:36.724Z,10.80
2019-04-16T06:05:05.013Z,9.57
2019-04-16T06:07:31.768Z,10.20
2019-04-16T06:09:57.820Z,9.70
2019-04-16T06:12:26.063Z,8.73
2019-04-16T06:14:54.391Z,9.30
2019-04-16T06:17:31.787Z,10.07
2019-04-16T06:19:58.135Z,8.60
2019-04-16T06:22:30.192Z,9.70
2019-04-16T06:25:15.432Z,10.37
2019-04-16T06:27:53.324Z,9.97
2019-04-16T06:30:27.494Z,9.90
2019-04-16T06:33:07.675Z,9.13
2019-04-16T06:35:52.243Z,8.93
2019-04-16T06:38:32.259Z,8.90
2019-04-16T06:41:11.940Z,8.70
2019-04-16T06:43:43.676Z,9.37
2019-04-16T06:46:14.410Z,9.13
2019-04-16T06:48:51.175Z,9.20
2019-04-16T06:51:43.520Z,9.37
2019-04-16T06:54:19.571Z,8.20
2019-04-16T06:57:03.943Z,9.80
2019-04-16T06:59:32.214Z,9.20
2019-04-16T07:02:03.557Z,9.20
2019-04-16T07:04:31.508Z,9.20
2019-04-16T07:07:17.267Z,9.63
2019-04-16T07:09:45.988Z,9.10
2019-04-16T07:12:17.752Z,9.10
2019-04-16T07:14:45.549Z,9.90
2019-04-16T07:17:12.151Z,9.37
2019-04-16T07:19:39.412Z,8.27
2019-04-16T07:22:06.556Z,8.30
2019-04-16T07:24:36.573Z,8.40
2019-04-16T07:27:01.368Z,8.27
2019-04-16T07:29:35.611Z,9.10
2019-04-16T07:32:13.165Z,7.77
2019-04-16T07:34:47.367Z,8.90
2019-04-16T07:37:17.835Z,8.37
2019-04-16T07:40:02.279Z,8.57
2019-04-16T07:42:30.267Z,9.63
2019-04-16T07:44:58.239Z,9.23
2019-04-16T07:47:38.487Z,8.07
2019-04-16T07:50:08.780Z,8.70
2019-04-16T07:52:42.744Z,8.30
2019-04-16T07:55:11.781Z,8.17
2019-04-16T07:57:38.529Z,8.03
2019-04-16T08:00:10.774Z,8.63
2019-04-16T08:02:36.820Z,7.60
2019-04-16T08:05:08.676Z,8.80
2019-04-16T08:07:33.772Z,8.23
2019-04-16T08:10:02.073Z,8.10
2019-04-16T08:12:30.352Z,8.73
2019-04-16T08:14:55.812Z,7.63
2019-04-16T08:17:22.168Z,7.97
2019-04-16T08:19:49.302Z,7.50
2019-04-16T08:22:16.752Z,8.20
2019-04-16T08:24:51.191Z,7.83
2019-04-16T08:27:19.177Z,7.80
2019-04-16T08:29:45.580Z,7.70
2019-04-16T08:32:12.883Z,7.13
2019-04-16T08:34:40.300Z,7.93
2019-04-16T08:37:08.533Z,7.67
2019-04-16T08:39:36.919Z,7.70
2019-04-16T08:42:03.264Z,8.20
2019-04-16T08:44:29.340Z,7.40
2019-04-16T08:46:58.379Z,7.90
2019-04-16T08:49:23.383Z,7.10
2019-04-16T08:51:49.432Z,7.30
2019-04-16T08:54:18.163Z,7.87
2019-04-16T08:56:43.832Z,7.90
2019-04-16T08:59:11.076Z,8.13
2019-04-16T09:01:38.234Z,7.47
2019-04-16T09:04:04.644Z,7.67
2019-04-16T09:06:31.104Z,7.37
2019-04-16T09:09:12.936Z,7.53
2019-04-16T09:11:35.035Z,7.17
2019-04-16T09:14:03.610Z,6.90
2019-04-16T09:16:32.109Z,7.37
2019-04-16T09:19:12.300Z,8.00
2019-04-16T09:21:43.302Z,7.47
2019-04-16T09:24:24.717Z,7.00
2019-04-16T09:27:07.981Z,7.53
2019-04-16T09:29:39.189Z,7.30
2019-04-16T09:32:09.452Z,7.63
2019-04-16T09:35:07.442Z,6.53
2019-04-16T09:37:40.781Z,7.23
2019-04-16T09:40:25.995Z,7.17
2019-04-16T09:42:52.420Z,7.07
2019-04-16T09:45:19.499Z,6.80
2019-04-16T09:47:45.585Z,7.40
2019-04-16T09:50:13.533Z,7.53
2019-04-16T09:52:40.296Z,7.30
2019-04-16T09:55:06.555Z,7.50
2019-04-16T09:57:32.631Z,7.10
2019-04-16T10:00:00.186Z,6.37
2019-04-16T10:02:28.384Z,7.43
2019-04-16T10:04:54.471Z,6.60
2019-04-16T10:07:20.615Z,7.13
2019-04-16T10:09:47.175Z,6.70
2019-04-16T10:12:13.311Z,6.80
2019-04-16T10:14:39.397Z,7.50
2019-04-16T10:17:07.261Z,7.10
2019-04-16T10:19:34.133Z,6.53
2019-04-16T10:22:00.286Z,7.30
2019-04-16T10:24:34.775Z,6.53
2019-04-16T10:27:04.333Z,7.07
2019-04-16T10:29:30.192Z,6.97
2019-04-16T10:31:56.675Z,6.63
2019-04-16T10:34:22.749Z,6.50
2019-04-16T10:36:48.928Z,6.73
2019-04-16T10:39:34.029Z,6.80
2019-04-16T10:42:18.831Z,6.03
2019-04-16T10:45:03.927Z,6.30
2019-04-16T10:47:35.828Z,6.20
2019-04-16T10:50:23.891Z,6.67
2019-04-16T10:53:03.909Z,6.37
2019-04-16T10:55:50.432Z,6.50
2019-04-16T10:58:20.889Z,6.90
2019-04-16T11:00:48.860Z,6.17
2019-04-16T11:03:28.531Z,6.10
2019-04-16T11:06:05.064Z,6.50
2019-04-16T11:08:31.167Z,6.00
2019-04-16T11:10:57.321Z,5.40
2019-04-16T11:13:28.760Z,7.03
2019-04-16T11:15:57.456Z,5.87
2019-04-16T11:18:23.529Z,6.40
2019-04-16T11:20:49.712Z,5.20
2019-04-16T11:23:15.948Z,5.83
2019-04-16T11:25:42.036Z,5.30
2019-04-16T11:28:08.357Z,5.90
2019-04-16T11:30:36.548Z,6.03
2019-04-16T11:33:04.292Z,5.70
2019-04-16T11:35:30.580Z,5.30
2019-04-16T11:37:56.741Z,5.60
2019-04-16T11:40:23.548Z,5.53
2019-04-16T11:42:50.369Z,6.10
2019-04-16T11:45:20.225Z,6.43
2019-04-16T11:47:48.263Z,5.97
2019-04-16T11:50:14.759Z,5.90
2019-04-16T11:52:40.984Z,5.77
2019-04-16T11:55:07.225Z,6.00
2019-04-16T11:57:34.132Z,6.00
2019-04-16T12:00:07.574Z,5.70
2019-04-16T12:02:38.758Z,5.60
2019-04-16T12:05:19.145Z,5.50
2019-04-16T12:07:49.627Z,4.90
2019-04-16T12:10:34.723Z,5.87
2019-04-16T12:13:12.271Z,5.60
2019-04-16T12:15:43.371Z,5.93
2019-04-16T12:18:17.246Z,5.00
2019-04-16T12:21:02.059Z,5.30
2019-04-16T12:23:49.036Z,5.40
2019-04-16T12:26:30.110Z,5.57
2019-04-16T12:28:58.415Z,5.70
2019-04-16T12:31:29.376Z,5.60
2019-04-16T12:34:03.160Z,4.67
2019-04-16T12:36:43.241Z,5.03
2019-04-16T12:39:27.497Z,4.80
2019-04-16T12:42:05.167Z,5.27
2019-04-16T12:44:45.344Z,5.90
2019-04-16T12:47:08.114Z,5.70
2019-04-16T12:49:53.024Z,5.87
2019-04-16T12:52:33.518Z,5.20
2019-04-16T12:55:23.619Z,4.90
2019-04-16T12:57:49.936Z,5.37
2019-04-16T13:00:28.711Z,5.20
2019-04-16T13:02:58.136Z,5.73
2019-04-16T13:05:32.539Z,5.03
2019-04-16T13:08:16.195Z,5.13
2019-04-16T13:10:44.214Z,4.90
2019-04-16T13:13:13.436Z,5.40
2019-04-16T13:15:42.021Z,4.70
2019-04-16T13:18:10.299Z,5.50
2019-04-16T13:20:47.087Z,4.90
2019-04-16T13:23:15.347Z,5.47
2019-04-16T13:25:43.304Z,5.00
2019-04-16T13:28:09.756Z,5.00
2019-04-16T13:30:35.813Z,5.40
2019-04-16T13:33:03.040Z,4.70
2019-04-16T13:35:29.455Z,4.67
2019-04-16T13:37:55.787Z,4.50
2019-04-16T13:40:24.282Z,4.90
2019-04-16T13:42:50.700Z,4.90
2019-04-16T13:45:25.650Z,4.90
2019-04-16T13:47:54.562Z,4.70
2019-04-16T13:50:35.958Z,4.67
2019-04-16T13:53:03.328Z,4.50
2019-04-16T13:55:41.707Z,4.50
2019-04-16T13:58:10.960Z,4.67
2019-04-16T14:00:48.156Z,4.57
2019-04-16T14:03:16.445Z,4.50
2019-04-16T14:05:42.857Z,4.77
2019-04-16T14:08:09.496Z,4.27
2019-04-16T14:10:36.671Z,4.23
2019-04-16T14:13:03.186Z,4.53
2019-04-16T14:15:35.564Z,4.50
2019-04-16T14:18:00.715Z,4.87
2019-04-16T14:20:27.544Z,4.40
2019-04-16T14:22:54.274Z,4.10
2019-04-16T14:25:22.511Z,4.33
2019-04-16T14:27:48.984Z,4.73
2019-04-16T14:30:19.031Z,4.30
2019-04-16T14:32:45.077Z,4.33
2019-04-16T14:35:14.485Z,4.57
2019-04-16T14:37:40.527Z,4.50
2019-04-16T14:40:09.884Z,4.10
2019-04-16T14:42:35.973Z,4.33
2019-04-16T14:45:07.967Z,4.37
2019-04-16T14:47:38.068Z,4.17
2019-04-16T14:50:04.971Z,4.60
2019-04-16T14:52:31.025Z,4.80
2019-04-16T14:54:59.003Z,4.57
2019-04-16T14:57:25.057Z,3.70
2019-04-16T14:59:53.348Z,4.53
2019-04-16T15:02:21.305Z,4.17
2019-04-16T15:05:05.067Z,4.53
2019-04-16T15:07:38.773Z,4.53
2019-04-16T15:10:18.209Z,4.00
2019-04-16T15:12:52.308Z,4.67
2019-04-16T15:15:20.296Z,4.90
2019-04-16T15:18:04.717Z,5.03
2019-04-16T15:20:48.118Z,4.87
2019-04-16T15:23:28.283Z,4.40
2019-04-16T15:26:05.192Z,4.07
2019-04-16T15:28:42.389Z,4.73
2019-04-16T15:31:22.841Z,4.80
2019-04-16T15:33:51.869Z,4.23
2019-04-16T15:36:22.610Z,4.67
2019-04-16T15:39:02.921Z,3.67
2019-04-16T15:41:32.651Z,4.00
2019-04-16T15:44:22.604Z,4.67
2019-04-16T15:46:50.476Z,4.03
2019-04-16T15:49:19.453Z,3.70
2019-04-16T15:51:50.897Z,4.03
2019-04-16T15:54:21.663Z,3.73
2019-04-16T15:56:49.704Z,3.77
2019-04-16T15:59:20.732Z,3.80
2019-04-16T16:02:05.731Z,3.50
2019-04-16T16:04:43.227Z,3.80
2019-04-16T16:07:10.152Z,4.00
2019-04-16T16:09:41.831Z,4.40
2019-04-16T16:12:11.200Z,4.23
2019-04-16T16:14:38.820Z,4.30
2019-04-16T16:17:05.797Z,3.70
2019-04-16T16:19:32.919Z,3.90
2019-04-16T16:21:59.036Z,4.40
2019-04-16T16:24:25.759Z,3.90
2019-04-16T16:26:52.196Z,3.30
2019-04-16T16:29:18.309Z,4.33
2019-04-16T16:31:44.656Z,3.50
2019-04-16T16:34:10.711Z,3.57
2019-04-16T16:36:40.438Z,4.00
2019-04-16T16:39:06.068Z,3.53
2019-04-16T16:41:32.826Z,3.57
2019-04-16T16:43:58.876Z,3.73
2019-04-16T16:46:56.121Z,3.80
2019-04-16T16:49:11.265Z,3.70
2019-04-16T16:51:39.291Z,4.10
2019-04-16T16:54:07.252Z,4.00
2019-04-16T16:56:51.761Z,3.53
2019-04-16T16:59:22.473Z,4.40
2019-04-16T17:01:54.560Z,4.17
2019-04-16T17:04:23.086Z,3.90
2019-04-16T17:06:49.536Z,3.73
2019-04-16T17:09:18.594Z,3.80
2019-04-16T17:11:44.675Z,4.20
2019-04-16T17:14:11.012Z,3.80
2019-04-16T17:16:37.096Z,4.03
2019-04-16T17:19:03.143Z,3.30
2019-04-16T17:21:29.487Z,3.53
2019-04-16T17:23:56.185Z,3.63
2019-04-16T17:26:22.236Z,3.53
2019-04-16T17:28:48.288Z,3.87
2019-04-16T17:31:14.379Z,4.03
2019-04-16T17:33:40.433Z,3.63
2019-04-16T17:36:08.338Z,4.10
2019-04-16T17:38:36.723Z,3.87
2019-04-16T17:41:05.563Z,3.40
2019-04-16T17:43:36.413Z,4.17
2019-04-16T17:46:04.670Z,3.80
2019-04-16T17:48:33.017Z,3.50
2019-04-16T17:51:03.779Z,3.90
2019-04-16T17:53:47.005Z,3.60
2019-04-16T17:56:31.460Z,3.33
2019-04-16T17:59:08.518Z,4.10
2019-04-16T18:01:43.352Z,4.03
2019-04-16T18:04:21.228Z,3.60
2019-04-16T18:06:52.867Z,3.87
2019-04-16T18:09:23.403Z,3.50
2019-04-16T18:11:57.719Z,3.20
2019-04-16T18:14:41.305Z,3.50
2019-04-16T18:17:20.971Z,3.53
2019-04-16T18:19:55.656Z,3.70
2019-04-16T18:22:26.712Z,4.07
2019-04-16T18:25:11.489Z,3.50
2019-04-16T18:27:42.511Z,4.43
2019-04-16T18:30:27.821Z,4.10
2019-04-16T18:33:05.719Z,3.70
2019-04-16T18:35:33.988Z,3.37
2019-04-16T18:38:07.775Z,3.60
2019-04-16T18:40:41.879Z,4.10
2019-04-16T18:43:26.645Z,3.67
2019-04-16T18:45:57.163Z,4.50
2019-04-16T18:48:31.132Z,4.00
2019-04-16T18:51:00.536Z,3.30
2019-04-16T18:53:25.988Z,4.40
2019-04-16T18:55:52.392Z,3.90
2019-04-16T18:58:19.349Z,3.50
2019-04-16T19:00:47.957Z,3.20
2019-04-16T19:03:15.008Z,3.20
2019-04-16T19:05:42.120Z,4.27
2019-04-16T19:08:09.614Z,3.43
2019-04-16T19:10:37.164Z,3.77
2019-04-16T19:13:09.724Z,3.23
2019-04-16T19:15:32.066Z,3.93
2019-04-16T19:17:58.626Z,4.83
2019-04-16T19:20:25.064Z,3.47
2019-04-16T19:22:51.486Z,4.53
2019-04-16T19:25:17.611Z,3.60
2019-04-16T19:27:43.658Z,3.90
2019-04-16T19:30:11.376Z,4.00
2019-04-16T19:32:37.816Z,3.93
2019-04-16T19:35:10.613Z,3.67
2019-04-16T19:37:33.982Z,3.90
2019-04-16T19:40:00.737Z,4.07
2019-04-16T19:42:28.749Z,4.00
2019-04-16T19:44:55.936Z,4.20
2019-04-16T19:47:23.312Z,3.63
2019-04-16T19:49:50.676Z,3.67
2019-04-16T19:52:17.340Z,4.17
2019-04-16T19:54:44.715Z,4.50
2019-04-16T19:57:11.056Z,4.63
2019-04-16T19:59:37.192Z,4.57
2019-04-16T20:02:03.273Z,4.17
2019-04-16T20:04:29.627Z,3.97
2019-04-16T20:07:00.031Z,3.93
2019-04-16T20:09:24.356Z,4.20
2019-04-16T20:11:54.712Z,4.10
2019-04-16T20:14:19.451Z,4.10
2019-04-16T20:16:45.958Z,4.40
2019-04-16T20:19:12.000Z,4.50
2019-04-16T20:21:38.272Z,4.00
2019-04-16T20:24:05.390Z,4.30
2019-04-16T20:26:32.527Z,4.70
2019-04-16T20:29:00.247Z,4.80
2019-04-16T20:31:26.627Z,4.60
2019-04-16T20:33:53.383Z,4.90
2019-04-16T20:36:22.783Z,4.67
2019-04-16T20:38:48.679Z,4.70
2019-04-16T20:41:18.167Z,5.07
2019-04-16T20:43:43.605Z,5.30
2019-04-16T20:46:09.655Z,4.47
2019-04-16T20:48:36.076Z,4.73
2019-04-16T20:51:02.241Z,4.70
2019-04-16T20:53:28.924Z,4.77
2019-04-16T20:55:54.971Z,4.47
2019-04-16T20:58:21.071Z,5.27
2019-04-16T21:00:49.247Z,5.03
2019-04-16T21:03:22.341Z,4.57
2019-04-16T21:05:57.401Z,4.70
2019-04-16T21:08:11.524Z,4.97
2019-04-16T21:10:37.571Z,5.10
2019-04-16T21:13:04.963Z,5.13
2019-04-16T21:15:31.335Z,4.80
2019-04-16T21:17:57.748Z,5.33
2019-04-16T21:20:24.137Z,4.50
2019-04-16T21:22:51.542Z,4.80
2019-04-16T21:25:17.624Z,4.40
2019-04-16T21:27:45.609Z,5.40
2019-04-16T21:30:13.271Z,4.60
2019-04-16T21:32:45.558Z,5.10
2019-04-16T21:35:15.287Z,5.13
2019-04-16T21:37:51.826Z,4.40
2019-04-16T21:40:23.151Z,4.37
2019-04-16T21:42:46.140Z,5.23
2019-04-16T21:45:13.695Z,4.50
2019-04-16T21:47:40.180Z,5.00
2019-04-16T21:50:06.416Z,4.80
2019-04-16T21:52:32.800Z,4.47
2019-04-16T21:55:02.999Z,4.40
2019-04-16T21:57:26.899Z,5.07
2019-04-16T21:59:56.981Z,5.03
2019-04-16T22:02:26.302Z,4.77
2019-04-16T22:04:52.608Z,4.60
2019-04-16T22:07:24.142Z,4.80
2019-04-16T22:09:46.745Z,4.43
2019-04-16T22:12:15.480Z,5.13
2019-04-16T22:14:41.107Z,5.60
2019-04-16T22:17:08.566Z,4.80
2019-04-16T22:19:36.111Z,5.27
2019-04-16T22:22:02.164Z,4.53
2019-04-16T22:24:28.624Z,4.67
2019-04-16T22:26:54.671Z,4.40
2019-04-16T22:29:20.751Z,5.20
2019-04-16T22:31:46.794Z,4.87
2019-04-16T22:34:13.194Z,5.27
2019-04-16T22:36:39.272Z,4.50
2019-04-16T22:39:25.311Z,4.73
2019-04-16T22:41:53.663Z,4.83
2019-04-16T22:44:22.756Z,4.60
2019-04-16T22:46:51.099Z,4.40
2019-04-16T22:49:18.581Z,4.87
2019-04-16T22:51:45.472Z,4.90
2019-04-16T22:54:11.597Z,4.53
2019-04-16T22:56:39.576Z,4.60
2019-04-16T22:59:07.987Z,4.90
2019-04-16T23:01:41.749Z,4.80
2019-04-16T23:04:06.928Z,4.70
2019-04-16T23:06:37.672Z,4.80
2019-04-16T23:09:01.609Z,4.03
2019-04-16T23:11:28.303Z,4.90
2019-04-16T23:13:54.386Z,4.30
2019-04-16T23:16:20.462Z,4.50
2019-04-16T23:18:49.335Z,4.63
2019-04-16T23:21:14.708Z,4.57
2019-04-16T23:23:40.840Z,3.90
2019-04-16T23:26:06.881Z,4.83
2019-04-16T23:28:33.207Z,4.80
2019-04-16T23:30:59.307Z,4.80
2019-04-16T23:33:25.356Z,5.20
2019-04-16T23:35:51.684Z,5.27
2019-04-16T23:38:17.731Z,4.83
2019-04-16T23:40:44.798Z,4.43
2019-04-16T23:43:30.247Z,4.77
2019-04-16T23:46:14.656Z,5.30
2019-04-16T23:48:44.835Z,4.40
2019-04-16T23:51:29.717Z,4.40
2019-04-16T23:54:08.279Z,4.97
2019-04-16T23:56:43.320Z,5.03
2019-04-16T23:59:28.306Z,4.87
